EZY45ED EGKK-EDDL
Flight info
| Callsign | EZY45ED |
|---|---|
| Flight time | 1h 5m |
| Altitude | 33000 |
| Route | ODVIK Y311 DVR UL9 KONAN DCT KOK UL607 SPI Y862 KENUM M170 NVO T857 BIKMU BIKMU1A |
| Aircraft | A319/M-SDE3FGHIRWY/LB1 |
Departure
| Time | 2026-05-06 18:33 |
|---|---|
| Airport | London Gatwick Airport (EGKK) |
Arrival
| Time | 2026-05-06 19:38 |
|---|---|
| Airport | Düsseldorf Airport (EDDL) |
| Time | Latitude | Longitude | Altitude | Speed | Heading |
|---|---|---|---|---|---|
| 2026-05-06 17:35 | 51.16025 | -0.18005 | 204 ft | 0 kts | 77° |
| 2026-05-06 18:12 | 51.16024 | -0.18011 | 204 ft | 3 kts | 77° |
| 2026-05-06 18:13 | 51.16018 | -0.18053 | 215 ft | 4 kts | 78° |
| 2026-05-06 18:13 | 51.16015 | -0.18095 | 208 ft | 4 kts | 93° |
| 2026-05-06 18:13 | 51.16021 | -0.18133 | 209 ft | 4 kts | 136° |
| 2026-05-06 18:13 | 51.16031 | -0.18144 | 214 ft | 0 kts | 166° |
| 2026-05-06 18:20 | 51.16021 | -0.18141 | 206 ft | 3 kts | 167° |
| 2026-05-06 18:21 | 51.15992 | -0.18130 | 204 ft | 6 kts | 167° |
| 2026-05-06 18:21 | 51.15934 | -0.18109 | 209 ft | 11 kts | 167° |
| 2026-05-06 18:21 | 51.15847 | -0.18078 | 206 ft | 14 kts | 168° |
| 2026-05-06 18:21 | 51.15759 | -0.18049 | 204 ft | 12 kts | 168° |
| 2026-05-06 18:22 | 51.15687 | -0.18066 | 212 ft | 11 kts | 236° |
| 2026-05-06 18:22 | 51.15670 | -0.18171 | 206 ft | 9 kts | 257° |
| 2026-05-06 18:22 | 51.15630 | -0.18233 | 206 ft | 9 kts | 188° |
| 2026-05-06 18:22 | 51.15565 | -0.18215 | 204 ft | 10 kts | 167° |
| 2026-05-06 18:23 | 51.15486 | -0.18187 | 204 ft | 13 kts | 163° |
| 2026-05-06 18:23 | 51.15424 | -0.18156 | 210 ft | 15 kts | 168° |
| 2026-05-06 18:23 | 51.15331 | -0.18124 | 204 ft | 12 kts | 167° |
| 2026-05-06 18:23 | 51.15275 | -0.18104 | 207 ft | 4 kts | 167° |
| 2026-05-06 18:24 | 51.15269 | -0.18102 | 204 ft | 0 kts | 168° |
| 2026-05-06 18:26 | 51.15253 | -0.18097 | 210 ft | 5 kts | 169° |
| 2026-05-06 18:26 | 51.15210 | -0.18123 | 211 ft | 10 kts | 236° |
| 2026-05-06 18:26 | 51.15190 | -0.18251 | 210 ft | 14 kts | 258° |
| 2026-05-06 18:26 | 51.15172 | -0.18431 | 214 ft | 18 kts | 257° |
| 2026-05-06 18:27 | 51.15144 | -0.18628 | 203 ft | 19 kts | 258° |
| 2026-05-06 18:27 | 51.15116 | -0.18834 | 203 ft | 19 kts | 257° |
| 2026-05-06 18:27 | 51.15087 | -0.19042 | 204 ft | 19 kts | 257° |
| 2026-05-06 18:27 | 51.15058 | -0.19254 | 213 ft | 20 kts | 256° |
| 2026-05-06 18:28 | 51.15028 | -0.19472 | 212 ft | 20 kts | 259° |
| 2026-05-06 18:28 | 51.14996 | -0.19700 | 212 ft | 21 kts | 257° |
| 2026-05-06 18:28 | 51.14965 | -0.19930 | 208 ft | 21 kts | 258° |
| 2026-05-06 18:28 | 51.14935 | -0.20147 | 206 ft | 19 kts | 258° |
| 2026-05-06 18:29 | 51.14908 | -0.20343 | 207 ft | 18 kts | 257° |
| 2026-05-06 18:29 | 51.14881 | -0.20540 | 207 ft | 18 kts | 258° |
| 2026-05-06 18:29 | 51.14853 | -0.20737 | 207 ft | 18 kts | 257° |
| 2026-05-06 18:29 | 51.14828 | -0.20921 | 209 ft | 16 kts | 257° |
| 2026-05-06 18:30 | 51.14813 | -0.21027 | 207 ft | 8 kts | 257° |
| 2026-05-06 18:30 | 51.14797 | -0.21133 | 214 ft | 11 kts | 252° |
| 2026-05-06 18:30 | 51.14772 | -0.21264 | 204 ft | 13 kts | 257° |
| 2026-05-06 18:30 | 51.14738 | -0.21395 | 207 ft | 12 kts | 211° |
| 2026-05-06 18:31 | 51.14659 | -0.21355 | 209 ft | 13 kts | 142° |
| 2026-05-06 18:31 | 51.14556 | -0.21294 | 213 ft | 18 kts | 152° |
| 2026-05-06 18:31 | 51.14526 | -0.21116 | 213 ft | 11 kts | 74° |
| 2026-05-06 18:31 | 51.14532 | -0.21079 | 207 ft | 0 kts | 77° |
| 2026-05-06 18:32 | 51.14532 | -0.21076 | 206 ft | 2 kts | 77° |
| 2026-05-06 18:32 | 51.14568 | -0.20820 | 210 ft | 60 kts | 77° |
| 2026-05-06 18:32 | 51.14713 | -0.19766 | 215 ft | 130 kts | 77° |
| 2026-05-06 18:32 | 51.14946 | -0.18109 | 381 ft | 166 kts | 77° |
| 2026-05-06 18:33 | 51.15211 | -0.16265 | 1125 ft | 166 kts | 74° |
| 2026-05-06 18:33 | 51.15458 | -0.14481 | 1746 ft | 176 kts | 75° |
| 2026-05-06 18:33 | 51.15733 | -0.12464 | 2159 ft | 199 kts | 75° |
| 2026-05-06 18:33 | 51.16051 | -0.10141 | 2647 ft | 224 kts | 76° |
| 2026-05-06 18:34 | 51.16398 | -0.07595 | 3218 ft | 248 kts | 75° |
| 2026-05-06 18:34 | 51.16768 | -0.04864 | 4070 ft | 258 kts | 76° |
| 2026-05-06 18:34 | 51.16888 | -0.01971 | 5020 ft | 267 kts | 90° |
| 2026-05-06 18:34 | 51.16836 | 0.01015 | 6013 ft | 271 kts | 91° |
| 2026-05-06 18:35 | 51.16775 | 0.04043 | 6970 ft | 275 kts | 91° |
| 2026-05-06 18:35 | 51.16710 | 0.07130 | 7700 ft | 283 kts | 90° |
| 2026-05-06 18:35 | 51.16645 | 0.10273 | 7922 ft | 284 kts | 91° |
| 2026-05-06 18:35 | 51.16584 | 0.13426 | 7968 ft | 285 kts | 90° |
| 2026-05-06 18:36 | 51.16531 | 0.16592 | 7976 ft | 286 kts | 90° |
| 2026-05-06 18:36 | 51.16518 | 0.19738 | 7980 ft | 285 kts | 89° |
| 2026-05-06 18:36 | 51.16527 | 0.22887 | 7972 ft | 284 kts | 88° |
| 2026-05-06 18:36 | 51.16544 | 0.26021 | 7992 ft | 286 kts | 88° |
| 2026-05-06 18:37 | 51.16559 | 0.29225 | 8829 ft | 289 kts | 88° |
| 2026-05-06 18:37 | 51.16566 | 0.31347 | 9454 ft | 292 kts | 88° |
| 2026-05-06 18:37 | 51.16580 | 0.35726 | 9898 ft | 296 kts | 88° |
| 2026-05-06 18:37 | 51.16586 | 0.39003 | 9965 ft | 296 kts | 88° |
| 2026-05-06 18:38 | 51.16589 | 0.42304 | 10333 ft | 299 kts | 88° |
| 2026-05-06 18:38 | 51.16589 | 0.45683 | 11258 ft | 301 kts | 88° |
| 2026-05-06 18:38 | 51.16590 | 0.48975 | 12090 ft | 305 kts | 89° |
| 2026-05-06 18:38 | 51.16593 | 0.52488 | 12435 ft | 328 kts | 89° |
| 2026-05-06 18:39 | 51.16596 | 0.56240 | 12841 ft | 345 kts | 89° |
| 2026-05-06 18:39 | 51.16595 | 0.60112 | 13540 ft | 353 kts | 89° |
| 2026-05-06 18:39 | 51.16572 | 0.64050 | 14244 ft | 357 kts | 90° |
| 2026-05-06 18:40 | 51.16345 | 0.72046 | 15631 ft | 365 kts | 92° |
| 2026-05-06 18:40 | 51.16188 | 0.76157 | 16327 ft | 369 kts | 93° |
| 2026-05-06 18:40 | 51.16032 | 0.80262 | 17028 ft | 373 kts | 93° |
| 2026-05-06 18:40 | 51.15880 | 0.84411 | 17714 ft | 377 kts | 93° |
| 2026-05-06 18:41 | 51.15732 | 0.88605 | 18378 ft | 381 kts | 92° |
| 2026-05-06 18:41 | 51.15589 | 0.92838 | 18971 ft | 384 kts | 92° |
| 2026-05-06 18:41 | 51.15446 | 0.97103 | 19577 ft | 388 kts | 93° |
| 2026-05-06 18:41 | 51.15300 | 1.01412 | 20179 ft | 391 kts | 93° |
| 2026-05-06 18:42 | 51.15150 | 1.05765 | 20784 ft | 395 kts | 93° |
| 2026-05-06 18:42 | 51.14997 | 1.10147 | 21382 ft | 398 kts | 93° |
| 2026-05-06 18:42 | 51.14840 | 1.14567 | 21976 ft | 401 kts | 93° |
| 2026-05-06 18:42 | 51.14677 | 1.19017 | 22568 ft | 405 kts | 93° |
| 2026-05-06 18:43 | 51.14513 | 1.23505 | 23146 ft | 408 kts | 93° |
| 2026-05-06 18:43 | 51.14346 | 1.28043 | 23678 ft | 411 kts | 93° |
| 2026-05-06 18:43 | 51.14180 | 1.32609 | 24139 ft | 414 kts | 93° |
| 2026-05-06 18:43 | 51.14013 | 1.37200 | 24610 ft | 417 kts | 93° |
| 2026-05-06 18:44 | 51.13840 | 1.41819 | 25076 ft | 420 kts | 94° |
| 2026-05-06 18:44 | 51.13664 | 1.46465 | 25510 ft | 422 kts | 94° |
| 2026-05-06 18:44 | 51.13483 | 1.51151 | 25951 ft | 425 kts | 94° |
| 2026-05-06 18:44 | 51.13299 | 1.55864 | 26407 ft | 427 kts | 94° |
| 2026-05-06 18:45 | 51.13114 | 1.60606 | 26841 ft | 430 kts | 94° |
| 2026-05-06 18:45 | 51.12926 | 1.65377 | 27265 ft | 433 kts | 94° |
| 2026-05-06 18:45 | 51.12734 | 1.70167 | 27706 ft | 435 kts | 94° |
| 2026-05-06 18:45 | 51.12602 | 1.73367 | 27985 ft | 437 kts | 94° |
| 2026-05-06 18:46 | 51.12333 | 1.79851 | 28551 ft | 441 kts | 94° |
| 2026-05-06 18:46 | 51.12128 | 1.84750 | 28970 ft | 443 kts | 94° |
| 2026-05-06 18:46 | 51.11923 | 1.89651 | 29360 ft | 446 kts | 94° |
| 2026-05-06 18:46 | 51.11717 | 1.94590 | 29769 ft | 448 kts | 94° |
| 2026-05-06 18:47 | 51.11507 | 1.99553 | 30143 ft | 450 kts | 94° |
| 2026-05-06 18:47 | 51.11293 | 2.04535 | 30464 ft | 453 kts | 94° |
| 2026-05-06 18:47 | 51.11075 | 2.09555 | 30796 ft | 455 kts | 94° |
| 2026-05-06 18:47 | 51.10853 | 2.14584 | 31101 ft | 457 kts | 94° |
| 2026-05-06 18:48 | 51.10628 | 2.19643 | 31410 ft | 459 kts | 94° |
| 2026-05-06 18:48 | 51.10401 | 2.24716 | 31766 ft | 460 kts | 94° |
| 2026-05-06 18:48 | 51.10171 | 2.29788 | 32197 ft | 459 kts | 94° |
| 2026-05-06 18:48 | 51.10018 | 2.33133 | 32492 ft | 458 kts | 94° |
| 2026-05-06 18:49 | 51.09709 | 2.39889 | 32930 ft | 458 kts | 94° |
| 2026-05-06 18:49 | 51.09478 | 2.44887 | 32975 ft | 447 kts | 94° |
| 2026-05-06 18:49 | 51.09250 | 2.49764 | 32961 ft | 440 kts | 94° |
| 2026-05-06 18:50 | 51.08868 | 2.57811 | 32965 ft | 437 kts | 94° |
| 2026-05-06 18:50 | 51.08325 | 2.69002 | 32964 ft | 437 kts | 94° |
| 2026-05-06 18:51 | 51.07930 | 2.77056 | 32954 ft | 436 kts | 94° |
| 2026-05-06 18:51 | 51.07448 | 2.86682 | 32979 ft | 437 kts | 95° |
| 2026-05-06 18:52 | 51.06958 | 2.96310 | 32974 ft | 437 kts | 95° |
| 2026-05-06 18:52 | 51.06451 | 3.05985 | 32963 ft | 436 kts | 95° |
| 2026-05-06 18:53 | 51.05943 | 3.15589 | 32958 ft | 436 kts | 95° |
| 2026-05-06 18:53 | 51.05432 | 3.25186 | 32943 ft | 435 kts | 95° |
| 2026-05-06 18:54 | 51.04915 | 3.34832 | 32938 ft | 435 kts | 95° |
| 2026-05-06 18:54 | 51.04391 | 3.44404 | 32933 ft | 434 kts | 95° |
| 2026-05-06 18:55 | 51.03853 | 3.53959 | 32932 ft | 434 kts | 95° |
| 2026-05-06 18:55 | 51.03312 | 3.63508 | 32925 ft | 434 kts | 95° |
| 2026-05-06 18:56 | 51.02769 | 3.73063 | 32922 ft | 434 kts | 95° |
| 2026-05-06 18:56 | 51.02218 | 3.82591 | 32926 ft | 433 kts | 96° |
| 2026-05-06 18:57 | 51.01652 | 3.92129 | 32920 ft | 433 kts | 96° |
| 2026-05-06 18:57 | 51.01075 | 4.01645 | 32930 ft | 433 kts | 96° |
| 2026-05-06 18:58 | 51.00493 | 4.11161 | 32937 ft | 433 kts | 96° |
| 2026-05-06 18:58 | 50.99913 | 4.20674 | 32939 ft | 433 kts | 96° |
| 2026-05-06 18:59 | 50.99324 | 4.30178 | 32940 ft | 432 kts | 96° |
| 2026-05-06 18:59 | 50.98722 | 4.39668 | 32941 ft | 432 kts | 96° |
| 2026-05-06 19:00 | 50.98110 | 4.49167 | 32930 ft | 432 kts | 96° |
| 2026-05-06 19:00 | 50.97495 | 4.58641 | 32937 ft | 432 kts | 96° |
| 2026-05-06 19:01 | 50.96872 | 4.68137 | 32936 ft | 432 kts | 96° |
| 2026-05-06 19:01 | 50.96243 | 4.77633 | 32929 ft | 432 kts | 97° |
| 2026-05-06 19:02 | 50.95610 | 4.87110 | 32928 ft | 432 kts | 97° |
| 2026-05-06 19:02 | 50.94961 | 4.96579 | 32925 ft | 432 kts | 97° |
| 2026-05-06 19:03 | 50.94306 | 5.06074 | 32933 ft | 437 kts | 97° |
| 2026-05-06 19:03 | 50.93970 | 5.10923 | 32729 ft | 446 kts | 97° |
| 2026-05-06 19:03 | 50.93626 | 5.15837 | 31500 ft | 452 kts | 97° |
| 2026-05-06 19:03 | 50.93280 | 5.20741 | 30871 ft | 441 kts | 97° |
| 2026-05-06 19:04 | 50.92943 | 5.25530 | 30337 ft | 429 kts | 97° |
| 2026-05-06 19:04 | 50.92612 | 5.30180 | 29775 ft | 419 kts | 98° |
| 2026-05-06 19:04 | 50.92284 | 5.34697 | 29245 ft | 407 kts | 98° |
| 2026-05-06 19:04 | 50.91961 | 5.39100 | 28764 ft | 399 kts | 98° |
| 2026-05-06 19:05 | 50.91640 | 5.43454 | 28269 ft | 395 kts | 97° |
| 2026-05-06 19:05 | 50.91326 | 5.47767 | 27789 ft | 392 kts | 97° |
| 2026-05-06 19:05 | 50.91013 | 5.52043 | 27324 ft | 390 kts | 97° |
| 2026-05-06 19:05 | 50.90700 | 5.56304 | 26868 ft | 388 kts | 97° |
| 2026-05-06 19:06 | 50.90385 | 5.60531 | 26421 ft | 386 kts | 97° |
| 2026-05-06 19:06 | 50.90072 | 5.64735 | 25979 ft | 383 kts | 97° |
| 2026-05-06 19:06 | 50.89761 | 5.68914 | 25543 ft | 381 kts | 98° |
| 2026-05-06 19:06 | 50.89451 | 5.73079 | 25108 ft | 378 kts | 97° |
| 2026-05-06 19:07 | 50.89140 | 5.77215 | 24902 ft | 383 kts | 97° |
| 2026-05-06 19:07 | 50.88824 | 5.81404 | 24917 ft | 385 kts | 98° |
| 2026-05-06 19:07 | 50.88498 | 5.85626 | 24920 ft | 387 kts | 97° |
| 2026-05-06 19:07 | 50.88173 | 5.89858 | 24920 ft | 387 kts | 98° |
| 2026-05-06 19:08 | 50.87847 | 5.94088 | 24919 ft | 387 kts | 98° |
| 2026-05-06 19:08 | 50.87518 | 5.98365 | 24920 ft | 387 kts | 97° |
| 2026-05-06 19:08 | 50.87196 | 6.02547 | 24923 ft | 387 kts | 98° |
| 2026-05-06 19:08 | 50.86869 | 6.06778 | 24920 ft | 387 kts | 98° |
| 2026-05-06 19:09 | 50.86538 | 6.11005 | 24919 ft | 387 kts | 98° |
| 2026-05-06 19:09 | 50.86204 | 6.15218 | 24922 ft | 386 kts | 98° |
| 2026-05-06 19:09 | 50.85869 | 6.19424 | 24917 ft | 385 kts | 98° |
| 2026-05-06 19:09 | 50.85532 | 6.23643 | 24917 ft | 385 kts | 98° |
| 2026-05-06 19:10 | 50.85193 | 6.27847 | 24916 ft | 385 kts | 98° |
| 2026-05-06 19:10 | 50.84856 | 6.32038 | 24915 ft | 385 kts | 98° |
| 2026-05-06 19:10 | 50.84519 | 6.36237 | 24916 ft | 385 kts | 98° |
| 2026-05-06 19:10 | 50.84180 | 6.40443 | 24905 ft | 385 kts | 98° |
| 2026-05-06 19:11 | 50.83835 | 6.44631 | 24545 ft | 383 kts | 98° |
| 2026-05-06 19:11 | 50.83492 | 6.48795 | 24098 ft | 380 kts | 98° |
| 2026-05-06 19:11 | 50.83154 | 6.52880 | 23660 ft | 378 kts | 98° |
| 2026-05-06 19:11 | 50.82804 | 6.56985 | 23173 ft | 375 kts | 98° |
| 2026-05-06 19:12 | 50.82452 | 6.61069 | 22596 ft | 374 kts | 98° |
| 2026-05-06 19:12 | 50.82101 | 6.65158 | 22055 ft | 373 kts | 98° |
| 2026-05-06 19:12 | 50.81747 | 6.69208 | 21594 ft | 370 kts | 98° |
| 2026-05-06 19:12 | 50.81396 | 6.73232 | 20971 ft | 367 kts | 98° |
| 2026-05-06 19:13 | 50.81050 | 6.77213 | 20283 ft | 365 kts | 98° |
| 2026-05-06 19:13 | 50.80703 | 6.81179 | 19656 ft | 362 kts | 98° |
| 2026-05-06 19:13 | 50.80356 | 6.85098 | 19041 ft | 359 kts | 98° |
| 2026-05-06 19:13 | 50.80012 | 6.88996 | 18413 ft | 357 kts | 98° |
| 2026-05-06 19:14 | 50.79670 | 6.92852 | 17783 ft | 354 kts | 98° |
| 2026-05-06 19:14 | 50.79619 | 6.96698 | 17148 ft | 349 kts | 79° |
| 2026-05-06 19:14 | 50.80438 | 7.00258 | 16525 ft | 342 kts | 56° |
| 2026-05-06 19:14 | 50.82017 | 7.02979 | 15957 ft | 333 kts | 33° |
| 2026-05-06 19:15 | 50.84084 | 7.04466 | 15403 ft | 324 kts | 9° |
| 2026-05-06 19:15 | 50.86295 | 7.04518 | 14879 ft | 317 kts | 347° |
| 2026-05-06 19:15 | 50.88339 | 7.03101 | 14312 ft | 312 kts | 322° |
| 2026-05-06 19:15 | 50.89780 | 7.00672 | 13757 ft | 311 kts | 308° |
| 2026-05-06 19:16 | 50.91166 | 6.98075 | 13109 ft | 309 kts | 313° |
| 2026-05-06 19:16 | 50.92606 | 6.95564 | 12496 ft | 307 kts | 313° |
| 2026-05-06 19:16 | 50.93951 | 6.93197 | 12011 ft | 306 kts | 313° |
| 2026-05-06 19:16 | 50.95357 | 6.90693 | 11621 ft | 304 kts | 313° |
| 2026-05-06 19:17 | 50.96748 | 6.88187 | 11216 ft | 302 kts | 313° |
| 2026-05-06 19:17 | 50.98127 | 6.85678 | 10916 ft | 301 kts | 313° |
| 2026-05-06 19:17 | 50.99497 | 6.83166 | 10889 ft | 302 kts | 313° |
| 2026-05-06 19:17 | 51.00874 | 6.80639 | 10893 ft | 302 kts | 313° |
| 2026-05-06 19:18 | 51.02250 | 6.78113 | 10894 ft | 302 kts | 313° |
| 2026-05-06 19:18 | 51.03621 | 6.75592 | 10904 ft | 302 kts | 313° |
| 2026-05-06 19:18 | 51.05003 | 6.73050 | 10904 ft | 302 kts | 313° |
| 2026-05-06 19:18 | 51.06481 | 6.70699 | 10914 ft | 300 kts | 322° |
| 2026-05-06 19:19 | 51.08094 | 6.68590 | 10914 ft | 300 kts | 323° |
| 2026-05-06 19:19 | 51.09719 | 6.66502 | 10919 ft | 300 kts | 323° |
| 2026-05-06 19:19 | 51.11343 | 6.64416 | 10903 ft | 300 kts | 323° |
| 2026-05-06 19:19 | 51.12988 | 6.62358 | 10912 ft | 302 kts | 323° |
| 2026-05-06 19:20 | 51.14652 | 6.60312 | 10916 ft | 302 kts | 323° |
| 2026-05-06 19:20 | 51.16316 | 6.58272 | 10915 ft | 301 kts | 323° |
| 2026-05-06 19:20 | 51.17975 | 6.56237 | 10916 ft | 300 kts | 323° |
| 2026-05-06 19:20 | 51.19628 | 6.54208 | 10921 ft | 300 kts | 323° |
| 2026-05-06 19:21 | 51.21302 | 6.52150 | 10920 ft | 300 kts | 323° |
| 2026-05-06 19:21 | 51.22393 | 6.50808 | 10920 ft | 300 kts | 323° |
| 2026-05-06 19:21 | 51.24579 | 6.48119 | 10921 ft | 300 kts | 323° |
| 2026-05-06 19:21 | 51.25696 | 6.46744 | 10917 ft | 300 kts | 323° |
| 2026-05-06 19:22 | 51.27346 | 6.44712 | 10920 ft | 300 kts | 323° |
| 2026-05-06 19:22 | 51.29536 | 6.42015 | 10921 ft | 300 kts | 323° |
| 2026-05-06 19:22 | 51.31186 | 6.39982 | 10917 ft | 300 kts | 323° |
| 2026-05-06 19:22 | 51.32302 | 6.38604 | 10924 ft | 300 kts | 323° |
| 2026-05-06 19:23 | 51.33956 | 6.36570 | 10913 ft | 300 kts | 324° |
| 2026-05-06 19:23 | 51.35811 | 6.35117 | 10908 ft | 298 kts | 347° |
| 2026-05-06 19:23 | 51.37869 | 6.35075 | 10921 ft | 299 kts | 12° |
| 2026-05-06 19:23 | 51.39752 | 6.36473 | 10910 ft | 302 kts | 37° |
| 2026-05-06 19:24 | 51.41162 | 6.38976 | 10917 ft | 305 kts | 52° |
| 2026-05-06 19:24 | 51.42402 | 6.41748 | 10892 ft | 304 kts | 53° |
| 2026-05-06 19:24 | 51.43594 | 6.44465 | 10511 ft | 302 kts | 53° |
| 2026-05-06 19:24 | 51.44812 | 6.47254 | 10256 ft | 295 kts | 53° |
| 2026-05-06 19:25 | 51.45939 | 6.49847 | 9995 ft | 284 kts | 53° |
| 2026-05-06 19:25 | 51.47056 | 6.52424 | 9503 ft | 279 kts | 53° |
| 2026-05-06 19:25 | 51.48160 | 6.54976 | 8961 ft | 276 kts | 53° |
| 2026-05-06 19:25 | 51.49181 | 6.57607 | 8397 ft | 275 kts | 66° |
| 2026-05-06 19:26 | 51.49455 | 6.60655 | 7975 ft | 276 kts | 95° |
| 2026-05-06 19:26 | 51.48780 | 6.63504 | 7906 ft | 283 kts | 123° |
| 2026-05-06 19:26 | 51.47311 | 6.65625 | 7910 ft | 289 kts | 151° |
| 2026-05-06 19:26 | 51.45397 | 6.66479 | 7906 ft | 285 kts | 178° |
| 2026-05-06 19:27 | 51.43532 | 6.65875 | 7910 ft | 266 kts | 208° |
| 2026-05-06 19:27 | 51.42134 | 6.64075 | 7914 ft | 257 kts | 230° |
| 2026-05-06 19:27 | 51.40974 | 6.61894 | 7911 ft | 256 kts | 233° |
| 2026-05-06 19:27 | 51.39846 | 6.59685 | 7911 ft | 256 kts | 233° |
| 2026-05-06 19:28 | 51.38722 | 6.57467 | 7912 ft | 256 kts | 233° |
| 2026-05-06 19:28 | 51.37603 | 6.55264 | 7789 ft | 254 kts | 233° |
| 2026-05-06 19:28 | 51.36476 | 6.53050 | 7431 ft | 253 kts | 233° |
| 2026-05-06 19:28 | 51.35370 | 6.50876 | 7084 ft | 252 kts | 233° |
| 2026-05-06 19:29 | 51.34278 | 6.48732 | 6741 ft | 251 kts | 233° |
| 2026-05-06 19:29 | 51.33166 | 6.46553 | 6396 ft | 250 kts | 233° |
| 2026-05-06 19:29 | 51.32064 | 6.44398 | 6046 ft | 249 kts | 233° |
| 2026-05-06 19:29 | 51.30982 | 6.42270 | 5914 ft | 247 kts | 233° |
| 2026-05-06 19:30 | 51.29895 | 6.40130 | 5919 ft | 249 kts | 233° |
| 2026-05-06 19:30 | 51.28710 | 6.38110 | 5905 ft | 251 kts | 219° |
| 2026-05-06 19:30 | 51.27007 | 6.36999 | 5566 ft | 249 kts | 184° |
| 2026-05-06 19:30 | 51.25441 | 6.37365 | 5226 ft | 245 kts | 154° |
| 2026-05-06 19:31 | 51.23942 | 6.38684 | 4853 ft | 243 kts | 145° |
| 2026-05-06 19:31 | 51.22520 | 6.40121 | 4507 ft | 241 kts | 144° |
| 2026-05-06 19:31 | 51.19716 | 6.43010 | 3975 ft | 228 kts | 144° |
| 2026-05-06 19:32 | 51.18372 | 6.44394 | 4000 ft | 220 kts | 144° |
| 2026-05-06 19:32 | 51.17257 | 6.45877 | 4009 ft | 214 kts | 121° |
| 2026-05-06 19:32 | 51.16793 | 6.48050 | 4019 ft | 206 kts | 90° |
| 2026-05-06 19:32 | 51.16826 | 6.50314 | 3998 ft | 204 kts | 76° |
| 2026-05-06 19:33 | 51.17287 | 6.52453 | 3705 ft | 204 kts | 63° |
| 2026-05-06 19:33 | 51.18013 | 6.54363 | 3473 ft | 200 kts | 52° |
| 2026-05-06 19:33 | 51.18843 | 6.56153 | 3243 ft | 194 kts | 51° |
| 2026-05-06 19:33 | 51.19640 | 6.57820 | 2946 ft | 183 kts | 50° |
| 2026-05-06 19:34 | 51.20389 | 6.59381 | 2705 ft | 172 kts | 50° |
| 2026-05-06 19:34 | 51.21096 | 6.60856 | 2489 ft | 159 kts | 50° |
| 2026-05-06 19:34 | 51.21727 | 6.62174 | 2269 ft | 138 kts | 50° |
| 2026-05-06 19:34 | 51.22285 | 6.63337 | 2087 ft | 128 kts | 49° |
| 2026-05-06 19:35 | 51.22818 | 6.64449 | 1916 ft | 124 kts | 50° |
| 2026-05-06 19:35 | 51.23341 | 6.65539 | 1751 ft | 123 kts | 49° |
| 2026-05-06 19:35 | 51.23861 | 6.66625 | 1580 ft | 123 kts | 48° |
| 2026-05-06 19:35 | 51.24380 | 6.67709 | 1421 ft | 124 kts | 49° |
| 2026-05-06 19:36 | 51.24951 | 6.68898 | 1343 ft | 130 kts | 48° |
| 2026-05-06 19:36 | 51.25512 | 6.70069 | 1274 ft | 141 kts | 48° |
| 2026-05-06 19:36 | 51.26097 | 6.71293 | 897 ft | 137 kts | 49° |
| 2026-05-06 19:36 | 51.26654 | 6.72502 | 652 ft | 133 kts | 50° |
| 2026-05-06 19:37 | 51.27222 | 6.73656 | 461 ft | 132 kts | 47° |
| 2026-05-06 19:37 | 51.27775 | 6.74821 | 275 ft | 132 kts | 49° |
| 2026-05-06 19:37 | 51.28323 | 6.75970 | 141 ft | 123 kts | 48° |
| 2026-05-06 19:37 | 51.28623 | 6.76588 | 135 ft | 77 kts | 53° |
| 2026-05-06 19:38 | 51.28909 | 6.77181 | 132 ft | 45 kts | 52° |
| 2026-05-06 19:38 | 51.29021 | 6.77488 | 132 ft | 17 kts | 86° |
| 2026-05-06 19:38 | 51.29014 | 6.77544 | 133 ft | 3 kts | 111° |
| 2026-05-06 19:38 | 51.29010 | 6.77556 | 134 ft | 0 kts | 121° |
| 2026-05-06 19:39 | 51.28997 | 6.77579 | 135 ft | 4 kts | 141° |
| 2026-05-06 19:39 | 51.28972 | 6.77608 | 136 ft | 0 kts | 143° |
| 2026-05-06 19:39 | 51.28969 | 6.77612 | 136 ft | 0 kts | 143° |
| 2026-05-06 19:40 | 51.28968 | 6.77613 | 136 ft | 0 kts | 143° |
| 2026-05-06 19:41 | 51.28955 | 6.77628 | 136 ft | 3 kts | 143° |
| 2026-05-06 19:41 | 51.28934 | 6.77653 | 137 ft | 5 kts | 143° |
| 2026-05-06 19:41 | 51.28893 | 6.77703 | 137 ft | 8 kts | 142° |
| 2026-05-06 19:42 | 51.28872 | 6.77729 | 137 ft | 1 kts | 142° |